createdAt,value
2023-01-04T12:32:43.870Z,19.60
2023-01-04T12:36:01.807Z,20.10
2023-01-04T12:39:05.736Z,20.10
2023-01-04T12:42:21.601Z,20.10
2023-01-04T12:45:23.467Z,20.10
2023-01-04T12:48:12.751Z,20.00
2023-01-04T12:51:32.852Z,20.10
2023-01-04T12:54:03.609Z,20.10
2023-01-04T12:57:29.429Z,20.10
2023-01-04T12:59:59.553Z,20.10
2023-01-04T13:02:28.730Z,20.10
2023-01-04T13:05:43.508Z,20.10
2023-01-04T13:07:48.064Z,20.10
2023-01-04T13:10:30.452Z,20.10
2023-01-04T13:13:26.065Z,20.10
2023-01-04T13:16:04.472Z,20.70
2023-01-04T13:18:37.438Z,21.10
2023-01-04T13:21:12.636Z,21.50
2023-01-04T13:23:41.177Z,21.80
2023-01-04T13:26:29.119Z,22.00
2023-01-04T13:29:10.074Z,22.20
2023-01-04T13:31:46.792Z,22.20
2023-01-04T13:34:24.005Z,22.60
2023-01-04T13:37:17.235Z,22.70
2023-01-04T13:39:47.192Z,23.00
2023-01-04T13:42:21.780Z,22.80
2023-01-04T13:45:42.151Z,22.50
2023-01-04T13:48:12.570Z,22.50
2023-01-04T13:50:44.225Z,22.50
2023-01-04T13:53:23.301Z,22.30
2023-01-04T13:55:52.784Z,22.80
2023-01-04T13:58:22.465Z,22.70
2023-01-04T14:00:54.428Z,22.70
2023-01-04T14:03:37.562Z,22.70
2023-01-04T14:06:21.795Z,22.60
2023-01-04T14:08:55.158Z,22.50
2023-01-04T14:11:43.099Z,22.50
2023-01-04T14:14:30.302Z,22.70
2023-01-04T14:17:18.996Z,22.70
2023-01-04T14:19:50.286Z,22.70
2023-01-04T14:22:45.144Z,23.10
2023-01-04T14:25:44.994Z,23.50
2023-01-04T14:28:27.676Z,23.30
2023-01-04T14:30:57.857Z,23.50
2023-01-04T14:33:32.159Z,24.10
2023-01-04T14:36:04.680Z,24.10
2023-01-04T14:38:36.494Z,24.20
2023-01-04T14:41:13.253Z,24.20
2023-01-04T14:43:46.276Z,24.20
2023-01-04T14:46:14.762Z,24.20
2023-01-04T14:48:44.544Z,24.20
2023-01-04T14:51:15.235Z,24.20
2023-01-04T14:53:43.528Z,24.30
2023-01-04T14:56:13.574Z,24.30
2023-01-04T14:58:41.936Z,24.30
2023-01-04T15:01:10.660Z,24.30
2023-01-04T15:03:39.301Z,24.30
2023-01-04T15:06:09.432Z,24.30
2023-01-04T15:08:37.734Z,24.30
2023-01-04T15:11:06.157Z,24.30
2023-01-04T15:13:39.804Z,24.30
2023-01-04T15:16:09.200Z,24.30
2023-01-04T15:18:37.561Z,24.40
2023-01-04T15:21:06.147Z,24.50
2023-01-04T15:23:35.829Z,24.30
2023-01-04T15:26:06.397Z,24.30
2023-01-04T15:28:34.859Z,24.30
2023-01-04T15:31:07.175Z,24.40
2023-01-04T15:33:35.739Z,24.40
2023-01-04T15:36:05.669Z,24.40
2023-01-04T15:38:35.391Z,24.40
2023-01-04T15:41:05.550Z,24.40
2023-01-04T15:43:36.480Z,24.40
2023-01-04T15:46:08.193Z,24.50
2023-01-04T15:48:36.754Z,24.10
2023-01-04T15:51:07.690Z,23.80
2023-01-04T15:53:37.565Z,23.50
2023-01-04T15:56:08.190Z,23.90
2023-01-04T15:58:36.502Z,23.70
2023-01-04T16:01:10.291Z,23.50
2023-01-04T16:03:38.741Z,23.20
2023-01-04T16:06:08.733Z,22.80
2023-01-04T16:08:38.397Z,23.10
2023-01-04T16:11:11.724Z,23.30
2023-01-04T16:13:40.691Z,23.60
2023-01-04T16:16:09.421Z,23.80
2023-01-04T16:18:37.970Z,23.70
2023-01-04T16:21:09.620Z,23.60
2023-01-04T16:23:39.371Z,23.30
2023-01-04T16:26:09.037Z,23.60
2023-01-04T16:28:37.305Z,23.50
2023-01-04T16:31:06.142Z,23.40
2023-01-04T16:33:35.589Z,23.50
2023-01-04T16:36:05.577Z,23.70
2023-01-04T16:38:38.136Z,23.80
2023-01-04T16:41:07.312Z,23.80
2023-01-04T16:43:43.674Z,23.60
2023-01-04T16:46:23.997Z,24.30
2023-01-04T16:48:53.880Z,24.50
2023-01-04T16:51:22.296Z,24.00
2023-01-04T16:53:52.113Z,24.10
2023-01-04T16:56:21.421Z,23.60
2023-01-04T16:58:49.774Z,23.40
2023-01-04T17:01:19.504Z,23.00
2023-01-04T17:03:48.383Z,22.70
2023-01-04T17:06:17.806Z,22.40
2023-01-04T17:08:46.600Z,22.90
2023-01-04T17:12:04.934Z,23.10
2023-01-04T17:14:06.054Z,23.30
2023-01-04T17:16:35.184Z,23.40
2023-01-04T17:19:03.797Z,22.60
2023-01-04T17:21:34.206Z,22.40
2023-01-04T17:24:03.326Z,21.80
2023-01-04T17:26:33.706Z,21.70
2023-01-04T17:29:02.544Z,21.70
2023-01-04T17:31:32.163Z,21.20
2023-01-04T17:34:00.555Z,21.10
2023-01-04T17:36:28.854Z,20.90
2023-01-04T17:38:57.293Z,20.90
2023-01-04T17:41:26.523Z,20.90
2023-01-04T17:44:00.166Z,20.90
2023-01-04T17:46:30.746Z,20.90
2023-01-04T17:49:21.516Z,20.90
2023-01-04T17:51:48.018Z,20.90
2023-01-04T17:54:16.833Z,20.80
2023-01-04T17:56:45.190Z,20.80
2023-01-04T17:59:15.600Z,21.30
2023-01-04T18:01:43.940Z,21.40
2023-01-04T18:04:12.401Z,22.00
2023-01-04T18:06:40.685Z,21.80
2023-01-04T18:09:09.247Z,21.30
2023-01-04T18:11:38.354Z,21.40
2023-01-04T18:14:12.068Z,21.10
2023-01-04T18:16:57.971Z,20.90
2023-01-04T18:19:27.897Z,20.90
2023-01-04T18:21:56.409Z,20.90
2023-01-04T18:24:36.099Z,20.90
2023-01-04T18:27:23.275Z,20.90
2023-01-04T18:29:52.854Z,20.30
2023-01-04T18:32:23.154Z,20.30
2023-01-04T18:34:51.475Z,20.00
2023-01-04T18:37:19.863Z,19.80
2023-01-04T18:39:48.507Z,19.80
2023-01-04T18:42:17.063Z,19.70
2023-01-04T18:44:49.635Z,19.30
2023-01-04T18:47:19.854Z,19.00
2023-01-04T18:49:50.138Z,18.70
2023-01-04T18:52:19.118Z,18.60
2023-01-04T18:54:48.537Z,18.20
2023-01-04T18:57:17.017Z,17.80
2023-01-04T18:59:49.809Z,16.60
2023-01-04T19:02:19.448Z,16.40
2023-01-04T19:04:49.328Z,16.00
2023-01-04T19:07:17.691Z,16.50
2023-01-04T19:09:46.049Z,16.40
2023-01-04T19:12:14.415Z,16.40
2023-01-04T19:14:42.808Z,16.40
2023-01-04T19:17:11.504Z,16.40
2023-01-04T19:19:39.844Z,16.40
2023-01-04T19:22:09.457Z,16.40
2023-01-04T19:24:38.540Z,16.40
2023-01-04T19:27:06.860Z,16.40
2023-01-04T19:29:36.921Z,16.40
2023-01-04T19:32:05.781Z,16.50
2023-01-04T19:34:34.047Z,16.70
2023-01-04T19:37:02.383Z,17.40
2023-01-04T19:39:32.183Z,17.50
2023-01-04T19:42:00.727Z,17.70
2023-01-04T19:44:28.956Z,18.20
2023-01-04T19:46:57.204Z,18.10
2023-01-04T19:49:25.495Z,17.90
2023-01-04T19:51:53.849Z,17.50
2023-01-04T19:54:25.521Z,17.60
2023-01-04T19:56:55.759Z,17.50
2023-01-04T19:59:24.455Z,17.70
2023-01-04T20:01:52.824Z,17.60
2023-01-04T20:04:21.310Z,17.60
2023-01-04T20:06:49.575Z,17.80
2023-01-04T20:09:24.521Z,17.40
2023-01-04T20:11:55.143Z,16.70
2023-01-04T20:14:23.617Z,17.10
2023-01-04T20:16:51.948Z,17.40
2023-01-04T20:19:20.219Z,17.70
2023-01-04T20:21:48.491Z,17.80
2023-01-04T20:24:16.847Z,17.70
2023-01-04T20:26:46.561Z,17.90
2023-01-04T20:29:16.360Z,16.90
2023-01-04T20:31:45.922Z,16.80
2023-01-04T20:34:14.424Z,17.60
2023-01-04T20:36:42.813Z,17.80
2023-01-04T20:39:11.168Z,18.20
2023-01-04T20:41:59.542Z,18.10
2023-01-04T20:44:28.716Z,18.00
2023-01-04T20:46:57.064Z,18.20
2023-01-04T20:49:25.708Z,17.90
2023-01-04T20:51:54.010Z,18.90
2023-01-04T20:54:22.353Z,18.40
2023-01-04T20:56:50.742Z,18.40
2023-01-04T20:59:19.260Z,18.50
2023-01-04T21:01:49.041Z,18.60
2023-01-04T21:04:17.738Z,18.80
2023-01-04T21:06:46.121Z,19.10
2023-01-04T21:09:14.626Z,18.90
2023-01-04T21:11:42.904Z,19.10
2023-01-04T21:14:12.072Z,19.20
2023-01-04T21:16:42.015Z,19.50
2023-01-04T21:19:11.699Z,19.30
2023-01-04T21:21:40.141Z,19.00
2023-01-04T21:24:09.210Z,18.70
2023-01-04T21:26:37.592Z,19.10
2023-01-04T21:29:05.887Z,18.90
2023-01-04T21:31:34.810Z,18.90
2023-01-04T21:34:07.909Z,19.00
2023-01-04T21:36:40.830Z,18.40
2023-01-04T21:39:09.064Z,18.00
2023-01-04T21:41:38.832Z,17.80
2023-01-04T21:44:10.051Z,17.80
2023-01-04T21:46:38.311Z,17.90
2023-01-04T21:49:06.781Z,18.10
2023-01-04T21:51:35.186Z,18.70
2023-01-04T21:54:05.373Z,18.40
2023-01-04T21:56:33.790Z,18.60
2023-01-04T21:59:02.073Z,18.30
2023-01-04T22:01:34.986Z,18.50
2023-01-04T22:04:04.002Z,18.70
2023-01-04T22:06:33.058Z,18.90
2023-01-04T22:09:01.405Z,20.00
2023-01-04T22:11:31.059Z,20.40
2023-01-04T22:13:59.293Z,20.30
2023-01-04T22:16:29.404Z,20.60
2023-01-04T22:18:57.744Z,21.30
2023-01-04T22:21:26.646Z,21.80
2023-01-04T22:23:55.288Z,22.40
2023-01-04T22:26:23.540Z,22.90
2023-01-04T22:28:53.573Z,23.80
2023-01-04T22:31:21.991Z,24.30
2023-01-04T22:33:50.273Z,24.00
2023-01-04T22:36:23.260Z,24.00
2023-01-04T22:38:52.368Z,24.10
2023-01-04T22:41:21.669Z,24.00
2023-01-04T22:43:54.246Z,24.40
2023-01-04T22:46:24.902Z,24.50
2023-01-04T22:48:53.267Z,24.50
2023-01-04T22:51:21.848Z,24.50
2023-01-04T22:53:50.140Z,24.50
2023-01-04T22:56:21.451Z,24.70
2023-01-04T22:58:53.470Z,25.20
2023-01-04T23:01:24.252Z,24.90
2023-01-04T23:03:52.841Z,24.90
2023-01-04T23:06:21.462Z,25.10
2023-01-04T23:08:49.786Z,25.00
2023-01-04T23:11:19.303Z,24.80
2023-01-04T23:13:47.626Z,25.20
2023-01-04T23:16:16.787Z,25.50
2023-01-04T23:18:46.441Z,25.60
2023-01-04T23:21:16.800Z,26.00
2023-01-04T23:23:45.120Z,26.30
2023-01-04T23:26:15.828Z,26.40
2023-01-04T23:28:44.289Z,26.50
2023-01-04T23:31:14.265Z,26.50
2023-01-04T23:33:42.668Z,26.60
2023-01-04T23:36:14.027Z,26.50
2023-01-04T23:38:42.525Z,26.20
2023-01-04T23:41:11.148Z,25.60
2023-01-04T23:43:39.833Z,25.30
2023-01-04T23:48:37.179Z,24.70
2023-01-04T23:51:05.687Z,24.80
2023-01-04T23:53:35.460Z,24.50
2023-01-04T23:56:06.469Z,24.50
2023-01-04T23:58:34.806Z,24.90
